Time;durP1;ratioP1;P1;durP2;ratioP2;P2;SDS_P1;SDS_P2;PMS_P1;PMS_P2;Temp;Humidity;BMP_temperature;BMP_pressure;BME280_temperature;BME280_humidity;BME280_pressure;Samples;Min_cycle;Max_cycle;Signal;HPM_P1;HPM_P2
2021/12/10 05:02:48;;;;;;;58.63;35.53;;;;;;;2.20;100.00;94249.84;4897726;29;20060;-76
2021/12/10 05:05:14;;;;;;;78.18;40.92;;;;;;;2.12;100.00;94250.53;4879864;29;20036;-76
2021/12/10 05:07:40;;;;;;;61.03;36.15;;;;;;;2.19;100.00;94250.78;4876242;29;20032;-76
2021/12/10 05:10:08;;;;;;;62.22;37.55;;;;;;;2.18;100.00;94257.66;4894243;29;20021;-76
2021/12/10 05:12:33;;;;;;;70.85;41.85;;;;;;;2.00;100.00;94255.00;4887745;29;20063;-77
2021/12/10 05:15:00;;;;;;;87.03;45.38;;;;;;;1.99;100.00;94252.59;4913323;29;20080;-76
2021/12/10 05:17:29;;;;;;;50.22;29.85;;;;;;;2.06;100.00;94262.09;4905449;29;20600;-75
2021/12/10 05:19:55;;;;;;;49.13;32.58;;;;;;;2.03;100.00;94262.38;4886273;29;20037;-76
2021/12/10 05:22:20;;;;;;;67.85;38.47;;;;;;;2.07;100.00;94293.56;4875243;29;20537;-76
2021/12/10 05:24:46;;;;;;;60.45;34.92;;;;;;;2.11;100.00;94315.31;4860761;29;20040;-76
2021/12/10 05:27:12;;;;;;;58.17;34.75;;;;;;;2.21;100.00;94307.66;4861050;29;20039;-76
2021/12/10 05:29:37;;;;;;;68.35;39.33;;;;;;;2.29;100.00;94313.69;4875187;29;20550;-76
2021/12/10 05:32:06;;;;;;;68.57;43.80;;;;;;;2.30;100.00;94322.97;4876992;29;20116;-76
2021/12/10 05:34:32;;;;;;;62.75;39.42;;;;;;;2.31;100.00;94352.66;4886139;29;20043;-76
2021/12/10 05:36:59;;;;;;;65.25;37.00;;;;;;;2.37;100.00;94347.03;4847950;29;20033;-75
2021/12/10 05:39:25;;;;;;;56.97;36.35;;;;;;;2.44;100.00;94350.63;4855509;29;20041;-74
2021/12/10 05:41:51;;;;;;;68.97;43.38;;;;;;;2.32;100.00;94338.13;4887659;29;20024;-75
2021/12/10 05:44:17;;;;;;;61.95;38.88;;;;;;;2.40;100.00;94341.63;4884947;29;20055;-75
2021/12/10 05:46:43;;;;;;;62.72;40.35;;;;;;;2.41;100.00;94334.78;4909500;29;20481;-75
2021/12/10 05:49:08;;;;;;;55.63;35.65;;;;;;;2.41;100.00;94330.47;4911909;29;20497;-75
2021/12/10 05:51:35;;;;;;;61.17;37.58;;;;;;;2.41;100.00;94338.13;4907432;29;20031;-74
2021/12/10 05:54:00;;;;;;;59.17;38.15;;;;;;;2.42;100.00;94333.81;4901077;29;20903;-74
2021/12/10 05:56:26;;;;;;;65.13;40.17;;;;;;;2.52;100.00;94327.75;4870785;29;20104;-75
2021/12/10 05:58:52;;;;;;;97.70;62.55;;;;;;;2.40;100.00;94321.19;4892206;29;20043;-75
2021/12/10 06:01:21;;;;;;;102.88;58.35;;;;;;;2.42;100.00;94329.53;4890456;29;20049;-75
2021/12/10 06:03:52;;;;;;;140.73;84.32;;;;;;;2.35;100.00;94337.88;4867685;29;20525;-75
2021/12/10 06:06:29;;;;;;;108.43;62.28;;;;;;;2.22;100.00;94338.16;4871837;29;20033;-75
2021/12/10 06:08:56;;;;;;;100.85;53.47;;;;;;;2.13;100.00;94339.78;4858524;29;20078;-74
2021/12/10 06:11:23;;;;;;;66.40;38.88;;;;;;;2.26;100.00;94348.91;4874289;29;20041;-74
2021/12/10 06:13:49;;;;;;;121.38;72.30;;;;;;;2.27;100.00;94355.63;4869049;29;20060;-74
2021/12/10 06:16:15;;;;;;;100.30;55.17;;;;;;;2.26;100.00;94356.56;4871690;29;20518;-74
2021/12/10 06:18:41;;;;;;;59.42;37.88;;;;;;;2.45;100.00;94359.91;4870608;29;20663;-74
2021/12/10 06:21:08;;;;;;;95.55;66.60;;;;;;;2.48;100.00;94357.06;4869622;29;20056;-74
2021/12/10 06:23:34;;;;;;;76.88;50.40;;;;;;;2.60;100.00;94361.09;4872275;29;20112;-74
2021/12/10 06:25:59;;;;;;;62.80;42.65;;;;;;;2.64;100.00;94353.94;4869619;29;20028;-75
2021/12/10 06:28:25;;;;;;;49.60;34.80;;;;;;;2.65;100.00;94350.47;4872186;29;20085;-74
2021/12/10 06:30:52;;;;;;;52.20;32.08;;;;;;;2.67;100.00;94358.78;4870165;29;20089;-74
2021/12/10 06:33:20;;;;;;;56.33;34.97;;;;;;;2.71;100.00;94355.03;4876251;29;20429;-74
2021/12/10 06:35:49;;;;;;;53.55;34.78;;;;;;;2.79;100.00;94367.94;4872590;29;20056;-74
2021/12/10 06:38:15;;;;;;;65.85;41.75;;;;;;;2.81;100.00;94360.91;4873059;29;20694;-75
2021/12/10 06:40:42;;;;;;;50.33;33.17;;;;;;;2.68;100.00;94347.63;4873619;29;20049;-75
2021/12/10 06:43:08;;;;;;;55.65;33.40;;;;;;;2.66;100.00;94340.09;4871319;29;20024;-74
2021/12/10 06:45:35;;;;;;;48.17;29.25;;;;;;;2.57;100.00;94335.00;4873560;29;20028;-75
2021/12/10 06:48:03;;;;;;;56.63;34.00;;;;;;;2.56;100.00;94351.28;4871367;29;20506;-75
2021/12/10 06:50:33;;;;;;;53.55;30.30;;;;;;;2.61;100.00;94359.34;4890722;29;20064;-74
2021/12/10 06:52:58;;;;;;;;;;;;;;;2.62;100.00;94364.31;4872218;29;20095;-74
2021/12/10 06:55:25;;;;;;;56.35;32.05;;;;;;;2.84;100.00;94370.88;4858231;29;19920;-74
2021/12/10 06:57:50;;;;;;;58.38;30.70;;;;;;;2.85;100.00;94398.06;4872569;29;20025;-75
2021/12/10 07:00:22;;;;;;;59.25;33.65;;;;;;;2.97;100.00;94396.13;4872465;29;20043;-75
2021/12/10 07:02:48;;;;;;;55.17;32.15;;;;;;;3.02;100.00;94409.28;4889230;29;20048;-74
2021/12/10 07:05:14;;;;;;;54.85;27.95;;;;;;;3.29;100.00;94422.13;4886552;29;20052;-75
2021/12/10 07:07:41;;;;;;;44.20;25.70;;;;;;;3.42;100.00;94432.88;4870107;29;20033;-74
2021/12/10 07:10:07;;;;;;;39.70;26.15;;;;;;;3.80;100.00;94446.44;4859480;29;20040;-75
2021/12/10 07:12:38;;;;;;;47.40;24.73;;;;;;;3.92;100.00;94464.03;4889218;29;20028;-76
2021/12/10 07:15:09;;;;;;;46.05;27.25;;;;;;;3.95;100.00;94466.31;4870233;29;20029;-76
2021/12/10 07:17:35;;;;;;;34.78;23.40;;;;;;;3.94;100.00;94476.72;4871569;29;20029;-74
2021/12/10 07:20:02;;;;;;;32.90;22.63;;;;;;;3.95;100.00;94476.53;4889294;29;20565;-74
2021/12/10 07:22:27;;;;;;;43.28;28.77;;;;;;;3.99;100.00;94436.09;4866302;29;20021;-74
2021/12/10 07:24:53;;;;;;;28.73;19.92;;;;;;;4.60;100.00;94420.81;4877882;29;20032;-75
2021/12/10 07:27:19;;;;;;;16.00;14.05;;;;;;;5.16;100.00;94397.34;4862814;29;20024;-75
2021/12/10 07:29:47;;;;;;;51.42;34.00;;;;;;;4.86;100.00;94357.53;4869156;29;20036;-75
2021/12/10 07:32:13;;;;;;;31.52;23.67;;;;;;;4.97;100.00;94306.00;4881315;29;20033;-74
2021/12/10 07:34:38;;;;;;;30.63;23.45;;;;;;;5.56;100.00;94242.66;4871802;29;20032;-74
2021/12/10 07:37:04;;;;;;;74.10;36.53;;;;;;;5.94;100.00;94162.41;4870606;29;20475;-75
2021/12/10 07:39:30;;;;;;;43.08;25.40;;;;;;;5.99;100.00;94111.34;4878126;29;20036;-75
2021/12/10 07:41:56;;;;;;;39.55;23.27;;;;;;;5.97;100.00;94107.34;4865927;29;20024;-76
2021/12/10 07:44:21;;;;;;;83.43;46.85;;;;;;;6.08;100.00;94073.59;4871812;29;20032;-75
2021/12/10 07:46:50;;;;;;;71.28;43.50;;;;;;;6.08;100.00;94063.31;4886142;29;20475;-75
2021/12/10 07:49:17;;;;;;;57.63;36.70;;;;;;;6.07;100.00;94056.59;4877671;29;20025;-74
2021/12/10 07:51:45;;;;;;;47.95;31.30;;;;;;;5.94;100.00;94062.22;4869956;29;20032;-74
2021/12/10 07:54:11;;;;;;;46.17;30.55;;;;;;;6.05;100.00;94081.63;4863181;29;20032;-74
2021/12/10 07:56:38;;;;;;;42.40;27.60;;;;;;;6.03;100.00;94089.50;4876028;29;20056;-73
2021/12/10 07:59:04;;;;;;;40.58;27.85;;;;;;;5.94;100.00;94053.72;4881557;29;20036;-75
2021/12/10 08:01:31;;;;;;;28.90;22.08;;;;;;;6.19;100.00;94048.34;4887013;29;20044;-74
2021/12/10 08:03:59;;;;;;;42.95;31.73;;;;;;;6.28;100.00;93882.81;4874302;29;20332;-73
2021/12/10 08:06:26;;;;;;;45.47;32.00;;;;;;;5.91;100.00;93881.94;4874850;29;20031;-73
2021/12/10 08:08:52;;;;;;;34.10;25.58;;;;;;;6.07;100.00;93895.47;4889171;29;20032;-73
2021/12/10 08:11:20;;;;;;;27.27;20.77;;;;;;;6.14;100.00;93906.66;4831178;29;20044;-74
2021/12/10 08:13:46;;;;;;;28.05;20.55;;;;;;;6.22;100.00;93900.69;4884553;29;20455;-73
2021/12/10 08:16:11;;;;;;;23.52;19.60;;;;;;;6.33;100.00;93884.84;4873629;29;20112;-74
2021/12/10 08:18:37;;;;;;;23.67;16.95;;;;;;;6.26;100.00;93881.38;4882957;29;20415;-73
2021/12/10 08:21:04;;;;;;;44.72;29.35;;;;;;;6.27;100.00;93881.19;4884979;29;20029;-73
2021/12/10 08:23:30;;;;;;;53.03;40.80;;;;;;;6.36;100.00;93882.72;4855901;29;20491;-73
2021/12/10 08:25:56;;;;;;;30.42;24.15;;;;;;;6.48;100.00;93875.44;4873865;29;20134;-74
2021/12/10 08:28:25;;;;;;;30.55;23.60;;;;;;;6.48;100.00;93867.72;4888330;29;20111;-73
2021/12/10 08:30:51;;;;;;;30.75;25.35;;;;;;;6.42;100.00;93863.28;4891154;29;20044;-73
2021/12/10 08:33:18;;;;;;;25.38;20.40;;;;;;;6.61;100.00;93867.94;4893013;29;20056;-73
2021/12/10 08:35:46;;;;;;;21.92;19.02;;;;;;;6.53;100.00;93875.69;4877383;29;20111;-74
2021/12/10 08:38:12;;;;;;;16.88;14.60;;;;;;;6.03;100.00;93875.44;4857079;29;20149;-73
2021/12/10 08:40:42;;;;;;;14.15;12.52;;;;;;;5.77;100.00;93879.06;4871681;29;20469;-73
2021/12/10 08:43:07;;;;;;;14.77;11.80;;;;;;;5.92;100.00;93870.66;4882480;29;20038;-73
2021/12/10 08:45:34;;;;;;;15.15;13.38;;;;;;;5.94;100.00;93873.88;4891464;29;20032;-73
2021/12/10 08:48:00;;;;;;;13.02;11.73;;;;;;;6.25;100.00;93866.91;4875109;29;20037;-73
2021/12/10 08:50:27;;;;;;;12.05;10.85;;;;;;;6.42;100.00;93849.59;4892267;29;20071;-73
2021/12/10 08:53:06;;;;;;;12.73;11.60;;;;;;;6.35;100.00;93841.78;4889892;29;20037;-73
2021/12/10 08:55:33;;;;;;;11.80;10.70;;;;;;;6.27;100.00;93852.91;4875494;29;20653;-73
2021/12/10 08:57:59;;;;;;;16.58;15.02;;;;;;;6.17;100.00;93859.25;4877328;29;20414;-73
2021/12/10 09:00:25;;;;;;;15.88;14.18;;;;;;;6.32;100.00;93865.28;4890774;29;20115;-73
2021/12/10 09:02:53;;;;;;;14.38;12.98;;;;;;;6.28;100.00;93867.38;4886270;29;20048;-73
2021/12/10 09:05:19;;;;;;;15.10;13.48;;;;;;;6.44;100.00;93861.31;4891157;29;20478;-73
2021/12/10 09:07:45;;;;;;;13.20;11.98;;;;;;;6.46;100.00;93843.94;4889659;29;20036;-73
2021/12/10 09:10:14;;;;;;;20.85;17.23;;;;;;;6.48;100.00;93839.44;4889509;29;20024;-73
2021/12/10 09:12:40;;;;;;;23.00;20.58;;;;;;;6.63;100.00;93818.88;4873930;29;20553;-73
2021/12/10 09:15:08;;;;;;;22.65;20.20;;;;;;;7.08;100.00;93823.09;4876840;29;20033;-73
2021/12/10 09:17:37;;;;;;;30.88;26.05;;;;;;;7.70;100.00;93788.22;4884549;29;20094;-73
2021/12/10 09:20:07;;;;;;;44.45;36.47;;;;;;;8.12;100.00;93766.00;4872001;29;20029;-73
2021/12/10 09:22:32;;;;;;;;;;;;;;;7.75;100.00;93791.03;4872165;29;20025;-73
2021/12/10 09:24:58;;;;;;;33.08;28.63;;;;;;;7.60;100.00;93808.31;4872090;29;20297;-73
2021/12/10 09:27:24;;;;;;;34.17;28.52;;;;;;;7.25;100.00;93816.78;4882816;29;20093;-74
2021/12/10 09:29:52;;;;;;;40.03;27.02;;;;;;;7.23;100.00;93821.31;4892506;29;20482;-73
2021/12/10 09:32:20;;;;;;;15.75;12.25;;;;;;;7.01;100.00;93827.34;4889542;29;20462;-75
2021/12/10 09:34:47;;;;;;;25.88;21.25;;;;;;;6.93;100.00;93845.44;4888502;29;20057;-75
2021/12/10 09:37:15;;;;;;;41.33;32.30;;;;;;;7.13;100.00;93857.63;4867617;29;20104;-76
2021/12/10 09:39:40;;;;;;;38.70;32.25;;;;;;;6.77;100.00;93842.06;4891926;29;20518;-74
2021/12/10 09:42:07;;;;;;;31.83;27.48;;;;;;;6.57;100.00;93846.09;4870873;29;20582;-74
2021/12/10 09:44:33;;;;;;;28.08;24.25;;;;;;;6.69;100.00;93847.28;4870479;29;20570;-74
2021/12/10 09:46:59;;;;;;;23.83;21.30;;;;;;;6.71;100.00;93836.81;4886783;29;20526;-75
2021/12/10 09:49:25;;;;;;;26.05;23.02;;;;;;;6.79;100.00;93839.31;4872115;29;20040;-75
2021/12/10 09:51:55;;;;;;;23.88;21.27;;;;;;;6.61;100.00;93842.22;4867853;29;20036;-74
2021/12/10 09:54:23;;;;;;;21.42;18.98;;;;;;;6.92;100.00;93836.94;4871842;29;20395;-74
2021/12/10 09:57:19;;;;;;;25.25;22.30;;;;;;;7.06;100.00;93836.16;4890195;29;20052;-75
2021/12/10 09:59:47;;;;;;;18.77;16.73;;;;;;;7.10;100.00;93810.81;4874635;29;20482;-74
2021/12/10 10:02:13;;;;;;;20.55;17.60;;;;;;;7.09;100.00;93809.25;4865854;29;20052;-75
2021/12/10 10:04:45;;;;;;;27.20;23.58;;;;;;;7.06;100.00;93827.63;4891387;29;20036;-71
2021/12/10 10:07:13;;;;;;;22.98;19.98;;;;;;;7.16;100.00;93821.22;4889143;29;20036;-71
2021/12/10 10:09:41;;;;;;;38.15;27.20;;;;;;;7.38;100.00;93814.38;4889842;29;20067;-72
2021/12/10 10:12:13;;;;;;;53.35;37.85;;;;;;;7.36;100.00;93821.47;4888950;29;20029;-72
2021/12/10 10:14:40;;;;;;;21.45;19.20;;;;;;;7.16;100.00;93816.06;4890121;29;20502;-72
2021/12/10 10:17:08;;;;;;;23.27;20.77;;;;;;;6.74;100.00;93826.97;4891137;29;20080;-71
2021/12/10 10:19:34;;;;;;;20.65;17.98;;;;;;;6.97;100.00;93826.13;4888232;29;20116;-71
2021/12/10 10:22:01;;;;;;;17.95;16.15;;;;;;;7.30;100.00;93824.75;4889737;29;20039;-71
2021/12/10 10:24:28;;;;;;;16.02;14.52;;;;;;;7.83;100.00;93814.09;4879161;29;20029;-71
2021/12/10 10:27:01;;;;;;;17.77;16.15;;;;;;;7.81;100.00;93772.25;4884008;29;20032;-71
2021/12/10 10:29:32;;;;;;;20.70;18.55;;;;;;;7.67;100.00;93752.50;4886006;29;20033;-71
2021/12/10 10:32:09;;;;;;;19.20;16.60;;;;;;;7.23;100.00;93754.34;4871104;29;20039;-71
2021/12/10 10:34:37;;;;;;;24.77;21.58;;;;;;;6.89;100.00;93747.22;4879008;29;20024;-71
2021/12/10 10:37:03;;;;;;;38.78;26.02;;;;;;;6.85;100.00;93757.06;4888578;29;20127;-71
2021/12/10 10:39:33;;;;;;;40.28;29.65;;;;;;;7.17;100.00;93749.94;4886642;29;20523;-74
2021/12/10 10:42:01;;;;;;;49.08;36.00;;;;;;;7.20;100.00;93740.06;4853642;29;20036;-75
2021/12/10 10:44:26;;;;;;;42.47;34.05;;;;;;;7.34;100.00;93752.13;4861994;29;20089;-75
2021/12/10 10:46:56;;;;;;;58.08;41.05;;;;;;;7.05;100.00;93747.03;4889830;29;20056;-74
2021/12/10 10:49:34;;;;;;;66.68;49.20;;;;;;;6.76;100.00;93741.91;4868592;29;20140;-74
2021/12/10 10:52:12;;;;;;;75.57;53.60;;;;;;;6.67;100.00;93750.69;4873109;29;20048;-74
2021/12/10 10:54:37;;;;;;;64.72;49.33;;;;;;;6.66;100.00;93744.75;4882789;29;20036;-74
2021/12/10 10:57:13;;;;;;;61.20;47.75;;;;;;;6.93;100.00;93739.94;4889544;29;20051;-74
2021/12/10 10:59:39;;;;;;;75.43;54.65;;;;;;;6.97;100.00;93733.47;4882382;29;20547;-74
2021/12/10 11:02:08;;;;;;;70.32;52.30;;;;;;;6.72;100.00;93722.66;4876489;29;20047;-74
2021/12/10 11:04:38;;;;;;;70.20;49.17;;;;;;;6.51;100.00;93728.50;4884669;29;20478;-74
2021/12/10 11:07:04;;;;;;;;;;;;;;;6.62;100.00;93740.91;4856752;29;20522;-73
2021/12/10 11:09:32;;;;;;;65.13;46.83;;;;;;;6.43;100.00;93745.78;4889447;29;19962;-74
2021/12/10 11:12:12;;;;;;;72.45;55.45;;;;;;;6.25;100.00;93740.97;4888451;29;20029;-75
2021/12/10 11:14:43;;;;;;;66.47;48.53;;;;;;;6.02;100.00;93735.06;4889750;29;20025;-74
2021/12/10 11:17:17;;;;;;;71.20;51.50;;;;;;;6.20;100.00;93751.75;4889643;29;20037;-75
2021/12/10 11:19:51;;;;;;;65.70;49.55;;;;;;;6.46;100.00;93753.94;4886838;29;20383;-75
2021/12/10 11:22:17;;;;;;;74.10;54.38;;;;;;;6.30;100.00;93746.38;4889030;29;20032;-75
2021/12/10 11:24:54;;;;;;;61.00;44.83;;;;;;;6.44;100.00;93742.22;4875838;29;20068;-75
2021/12/10 11:27:25;;;;;;;59.58;42.58;;;;;;;6.48;100.00;93754.56;4866739;29;20136;-75
2021/12/10 11:30:14;;;;;;;89.30;64.72;;;;;;;6.66;100.00;93757.59;4880550;29;20445;-75
2021/12/10 11:32:42;;;;;;;78.25;56.88;;;;;;;6.60;100.00;93758.31;4871103;29;20507;-75
2021/12/10 11:35:43;;;;;;;78.85;56.83;;;;;;;6.36;100.00;93749.03;4890149;29;20028;-75
2021/12/10 11:38:18;;;;;;;68.55;51.50;;;;;;;6.48;100.00;93754.56;4882586;29;20474;-75
2021/12/10 11:40:49;;;;;;;82.40;63.08;;;;;;;6.40;100.00;93772.63;4867886;29;20033;-75
2021/12/10 11:43:44;;;;;;;91.55;65.57;;;;;;;6.31;100.00;93784.78;4879016;29;20455;-76
2021/12/10 11:48:42;;;;;;;17.60;13.20;;;;;;;6.45;100.00;93754.94;4892199;29;20554;-76
2021/12/10 11:51:10;;;;;;;13.90;12.23;;;;;;;6.67;100.00;93745.53;4872802;29;20029;-75
2021/12/10 11:53:59;;;;;;;14.27;12.77;;;;;;;6.80;100.00;93731.09;4882929;29;20124;-76
2021/12/10 11:56:41;;;;;;;12.13;10.85;;;;;;;6.79;100.00;93703.75;4884055;29;20036;-76
2021/12/10 11:59:14;;;;;;;10.13;8.73;;;;;;;6.89;100.00;93699.13;4864675;29;20045;-76
2021/12/10 12:02:06;;;;;;;21.90;16.83;;;;;;;6.84;100.00;93698.06;4867859;29;20053;-76
2021/12/10 12:04:40;;;;;;;52.33;35.83;;;;;;;6.71;100.00;93711.53;4883960;29;20104;-75
2021/12/10 12:07:23;;;;;;;76.18;51.20;;;;;;;6.93;100.00;93697.00;4879518;29;20108;-76
2021/12/10 12:10:26;;;;;;;36.35;26.50;;;;;;;7.45;100.00;93686.47;4871606;29;20036;-76
2021/12/10 12:13:42;;;;;;;18.80;16.38;;;;;;;7.35;100.00;93688.56;4877514;29;20100;-76
2021/12/10 12:16:00;;;;;;;21.33;16.20;;;;;;;7.78;100.00;93672.13;4888448;29;20135;-76
2021/12/10 12:18:30;;;;;;;22.75;19.45;;;;;;;7.06;100.00;93673.19;4886169;29;20029;-76
2021/12/10 12:21:37;;;;;;;27.25;20.90;;;;;;;6.76;100.00;93687.88;4885947;29;20037;-75
2021/12/10 12:26:34;;;;;;;30.42;22.13;;;;;;;7.24;100.00;93682.09;4870608;29;20073;-76
2021/12/10 12:29:06;;;;;;;30.35;21.83;;;;;;;7.06;100.00;93675.78;4873519;29;20029;-76
2021/12/10 12:31:52;;;;;;;28.95;22.95;;;;;;;6.86;100.00;93689.19;4867577;29;20037;-75
2021/12/10 12:34:26;;;;;;;24.15;19.70;;;;;;;6.80;100.00;93679.63;4875336;29;20486;-76
2021/12/10 12:36:51;;;;;;;20.77;17.83;;;;;;;6.88;100.00;93679.50;4880035;29;20482;-76
2021/12/10 12:39:40;;;;;;;24.20;18.88;;;;;;;6.88;100.00;93699.31;4890771;29;20024;-75
2021/12/10 12:42:26;;;;;;;22.55;16.35;;;;;;;6.68;100.00;93704.19;4884643;29;20034;-75
2021/12/10 12:45:02;;;;;;;16.42;13.32;;;;;;;6.99;100.00;93701.44;4890791;29;20152;-76
2021/12/10 12:47:49;;;;;;;8.40;6.47;;;;;;;7.43;100.00;93681.50;4888057;29;20508;-75
2021/12/10 12:50:24;;;;;;;3.58;2.72;;;;;;;7.69;100.00;93665.50;4861871;29;20097;-75
2021/12/10 12:53:00;;;;;;;1.95;0.80;;;;;;;7.91;100.00;93650.81;4890176;29;20036;-77
2021/12/10 12:55:40;;;;;;;2.67;1.02;;;;;;;7.71;100.00;93652.41;4872004;29;20028;-77
2021/12/10 12:58:48;;;;;;;0.50;0.40;;;;;;;7.58;100.00;93652.34;4873309;29;20566;-76
2021/12/10 13:01:36;;;;;;;1.30;0.68;;;;;;;7.10;100.00;93648.66;4882369;29;20041;-76
2021/12/10 13:04:10;;;;;;;2.42;2.22;;;;;;;6.95;100.00;93642.75;4865086;29;20039;-76
2021/12/10 13:06:49;;;;;;;0.55;0.52;;;;;;;6.84;100.00;93641.44;4891320;29;20025;-76
2021/12/10 13:09:22;;;;;;;1.00;0.82;;;;;;;6.67;100.00;93642.66;4890156;29;20028;-76
2021/12/10 13:14:22;;;;;;;0.63;0.63;;;;;;;6.70;100.00;93650.00;4868335;29;20037;-76
2021/12/10 13:16:50;;;;;;;;;;;;;;;6.68;100.00;93652.75;4871366;29;20073;-76
2021/12/10 13:19:20;;;;;;;0.50;0.50;;;;;;;6.57;100.00;93648.06;4889559;29;19927;-74
2021/12/10 13:21:58;;;;;;;0.45;0.45;;;;;;;6.66;100.00;93654.72;4872286;29;20036;-75
2021/12/10 13:24:24;;;;;;;0.75;0.50;;;;;;;6.58;100.00;93651.44;4873075;29;20040;-73
2021/12/10 13:26:50;;;;;;;0.50;0.40;;;;;;;6.87;100.00;93636.75;4870900;29;20088;-73
2021/12/10 13:29:16;;;;;;;0.98;0.40;;;;;;;6.69;100.00;93635.53;4855163;29;20037;-73
2021/12/10 13:31:43;;;;;;;0.60;0.40;;;;;;;6.85;100.00;93632.75;4852317;29;20127;-72
2021/12/10 13:34:08;;;;;;;0.52;0.40;;;;;;;6.70;100.00;93634.56;4855850;29;20033;-73
2021/12/10 13:36:36;;;;;;;0.93;0.70;;;;;;;6.88;100.00;93622.09;4884776;29;20033;-74
2021/12/10 13:39:03;;;;;;;1.42;0.88;;;;;;;6.61;100.00;93618.44;4853755;29;20632;-74
2021/12/10 13:41:32;;;;;;;0.57;0.57;;;;;;;6.77;100.00;93620.03;4855821;29;20116;-74
2021/12/10 13:44:07;;;;;;;2.15;1.17;;;;;;;6.73;100.00;93617.00;4870996;29;20021;-73
2021/12/10 13:46:38;;;;;;;1.60;1.08;;;;;;;6.71;100.00;93606.09;4872478;29;20041;-73
2021/12/10 13:49:07;;;;;;;2.13;1.15;;;;;;;6.59;100.00;93604.97;4854947;29;20430;-74
2021/12/10 13:51:34;;;;;;;0.80;0.70;;;;;;;6.90;100.00;93597.78;4871322;29;20028;-73
2021/12/10 13:54:09;;;;;;;2.17;1.63;;;;;;;6.66;100.00;93587.84;4878189;29;20032;-73
2021/12/10 13:56:38;;;;;;;1.95;1.30;;;;;;;6.49;100.00;93596.72;4875878;29;20044;-72
2021/12/10 13:59:06;;;;;;;2.78;1.83;;;;;;;6.59;100.00;93602.38;4877332;29;20049;-73
2021/12/10 14:01:39;;;;;;;2.47;1.70;;;;;;;6.63;100.00;93613.91;4853272;29;20125;-73
2021/12/10 14:04:13;;;;;;;2.22;1.90;;;;;;;6.34;100.00;93613.94;4871385;29;20439;-73
2021/12/10 14:06:47;;;;;;;1.70;1.60;;;;;;;5.87;100.00;93628.91;4878023;29;20029;-73
2021/12/10 14:12:35;;;;;;;1.98;1.83;;;;;;;5.74;100.00;93634.63;4890552;29;20032;-74
2021/12/10 14:15:13;;;;;;;2.28;2.08;;;;;;;5.73;100.00;93633.81;4890209;29;20108;-73
2021/12/10 14:17:46;;;;;;;2.75;2.50;;;;;;;5.64;100.00;93634.06;4883344;29;20506;-73
2021/12/10 14:20:37;;;;;;;7.78;6.88;;;;;;;5.63;100.00;93640.16;4870410;29;20453;-73
2021/12/10 14:23:04;;;;;;;7.65;6.95;;;;;;;5.23;100.00;93647.19;4870598;29;20044;-73
2021/12/10 14:25:39;;;;;;;5.65;5.10;;;;;;;4.83;100.00;93667.16;4881055;29;20047;-73
2021/12/10 14:28:06;;;;;;;14.43;9.88;;;;;;;4.91;100.00;93695.34;4879217;29;20028;-73
2021/12/10 14:30:43;;;;;;;10.77;9.68;;;;;;;4.79;100.00;93712.84;4875253;29;20518;-73
2021/12/10 14:33:11;;;;;;;6.28;4.90;;;;;;;5.05;100.00;93713.38;4878667;29;20033;-73
2021/12/10 14:35:57;;;;;;;2.58;2.38;;;;;;;5.52;100.00;93700.41;4879108;29;20040;-73
2021/12/10 14:38:52;;;;;;;6.68;5.90;;;;;;;5.66;100.00;93680.88;4879571;29;20036;-73
2021/12/10 14:41:43;;;;;;;6.32;5.82;;;;;;;5.57;100.00;93675.03;4876679;29;20037;-73
2021/12/10 14:44:14;;;;;;;4.53;3.80;;;;;;;5.86;100.00;93669.22;4877830;29;20040;-73
2021/12/10 14:46:43;;;;;;;2.10;1.90;;;;;;;6.16;100.00;93657.22;4875852;29;20825;-74
2021/12/10 14:49:20;;;;;;;2.00;1.77;;;;;;;6.30;100.00;93643.53;4873625;29;20033;-72
2021/12/10 14:52:16;;;;;;;3.03;1.75;;;;;;;6.47;100.00;93639.03;4877070;29;20032;-74
2021/12/10 14:55:18;;;;;;;2.80;1.45;;;;;;;6.34;100.00;93643.03;4878009;29;20530;-73
2021/12/10 14:57:52;;;;;;;1.48;1.30;;;;;;;6.50;100.00;93628.38;4876467;29;20123;-73
2021/12/10 15:00:26;;;;;;;1.27;1.13;;;;;;;6.52;100.00;93632.38;4881789;29;20048;-73
2021/12/10 15:03:17;;;;;;;2.25;1.45;;;;;;;6.51;100.00;93638.50;4859373;29;20551;-74
2021/12/10 15:05:53;;;;;;;1.95;1.00;;;;;;;6.50;100.00;93625.81;4875226;29;20040;-73
2021/12/10 15:08:46;;;;;;;1.50;1.35;;;;;;;6.55;100.00;93632.00;4890389;29;20029;-73
2021/12/10 15:11:36;;;;;;;3.00;2.00;;;;;;;6.71;100.00;93634.38;4878347;29;20530;-74
2021/12/10 15:14:32;;;;;;;3.25;2.20;;;;;;;6.64;100.00;93628.38;4872269;29;20025;-77
2021/12/10 15:17:13;;;;;;;1.60;1.48;;;;;;;6.63;100.00;93633.69;4852832;29;20044;-72
2021/12/10 15:19:48;;;;;;;1.95;1.65;;;;;;;6.59;100.00;93632.44;4882920;29;20123;-73
2021/12/10 15:22:29;;;;;;;2.10;1.48;;;;;;;6.69;100.00;93643.25;4852646;29;20067;-74
2021/12/10 15:24:55;;;;;;;1.73;1.35;;;;;;;6.80;100.00;93648.75;4869980;29;20056;-74
2021/12/10 15:27:22;;;;;;;1.58;1.20;;;;;;;6.66;100.00;93649.56;4864390;29;20044;-73
2021/12/10 15:29:55;;;;;;;3.88;2.40;;;;;;;6.62;100.00;93661.19;4883276;29;20847;-74
2021/12/10 15:32:21;;;;;;;3.50;2.35;;;;;;;6.51;100.00;93682.22;4861488;29;22213;-73
2021/12/10 15:34:55;;;;;;;4.75;2.95;;;;;;;6.49;100.00;93699.59;4879821;29;20064;-74
2021/12/10 15:37:23;;;;;;;3.38;2.22;;;;;;;6.29;100.00;93701.09;4860485;29;20064;-74
2021/12/10 15:39:54;;;;;;;4.47;1.85;;;;;;;6.47;100.00;93704.13;4881599;29;20056;-73
2021/12/10 15:42:27;;;;;;;1.95;1.75;;;;;;;6.33;100.00;93713.41;4890281;29;20140;-73
2021/12/10 15:44:53;;;;;;;1.67;1.58;;;;;;;6.27;100.00;93721.81;4879469;29;20075;-74
2021/12/10 15:47:20;;;;;;;0.98;0.93;;;;;;;6.06;100.00;93728.59;4879822;29;20047;-74
2021/12/10 15:49:47;;;;;;;3.17;1.75;;;;;;;5.86;100.00;93737.75;4878982;29;20060;-74
2021/12/10 15:52:16;;;;;;;3.28;1.92;;;;;;;5.77;100.00;93752.41;4871179;29;20074;-74
2021/12/10 15:54:48;;;;;;;3.30;2.42;;;;;;;6.08;100.00;93747.22;4872227;29;20040;-74
2021/12/10 15:57:24;;;;;;;1.02;0.93;;;;;;;5.95;100.00;93740.09;4885514;29;20403;-73
2021/12/10 15:59:56;;;;;;;0.85;0.80;;;;;;;5.97;100.00;93735.59;4887587;29;20066;-73
2021/12/10 16:02:23;;;;;;;0.63;0.60;;;;;;;5.93;100.00;93734.34;4888609;29;20056;-73
2021/12/10 16:04:55;;;;;;;2.10;0.90;;;;;;;5.83;100.00;93755.09;4875892;29;20033;-73
2021/12/10 16:07:25;;;;;;;1.55;1.42;;;;;;;5.64;100.00;93765.81;4891285;29;20608;-73
2021/12/10 16:10:03;;;;;;;2.10;1.90;;;;;;;5.37;100.00;93776.56;4883698;29;20157;-73
2021/12/10 16:12:29;;;;;;;5.72;5.22;;;;;;;5.26;100.00;93793.16;4878995;29;20293;-74
2021/12/10 16:14:55;;;;;;;18.80;13.88;;;;;;;5.15;100.00;93801.19;4859902;29;20112;-74
2021/12/10 16:17:21;;;;;;;43.15;31.42;;;;;;;5.17;100.00;93812.09;4861475;29;20043;-73
2021/12/10 16:19:49;;;;;;;45.35;31.42;;;;;;;5.09;100.00;93821.59;4884059;29;20037;-74
2021/12/10 16:22:16;;;;;;;49.55;32.42;;;;;;;5.04;100.00;93818.72;4878525;29;20043;-74
2021/12/10 16:24:52;;;;;;;30.80;23.77;;;;;;;4.91;100.00;93839.78;4859297;29;20041;-74
2021/12/10 16:27:24;;;;;;;45.05;32.28;;;;;;;4.83;100.00;93841.53;4878243;29;20414;-74
2021/12/10 16:30:01;;;;;;;37.55;25.33;;;;;;;4.81;100.00;93830.66;4862843;29;20547;-74
2021/12/10 16:32:32;;;;;;;18.27;15.13;;;;;;;4.68;100.00;93836.28;4879842;29;20568;-74
2021/12/10 16:35:04;;;;;;;19.50;14.48;;;;;;;4.64;100.00;93850.38;4882969;29;20493;-73
2021/12/10 16:37:32;;;;;;;16.00;13.75;;;;;;;4.54;100.00;93858.25;4860217;29;20032;-73
2021/12/10 16:39:58;;;;;;;12.43;10.85;;;;;;;4.51;100.00;93863.69;4880941;29;20036;-73
2021/12/10 16:42:24;;;;;;;24.13;15.32;;;;;;;4.43;100.00;93860.34;4879914;29;20033;-73
2021/12/10 16:44:49;;;;;;;18.27;14.63;;;;;;;4.56;100.00;93876.03;4867654;29;20578;-74
2021/12/10 16:47:23;;;;;;;20.75;15.75;;;;;;;4.61;100.00;93882.28;4857978;29;20040;-74
2021/12/10 16:49:49;;;;;;;23.38;16.83;;;;;;;4.68;100.00;93893.50;4872613;29;20123;-74
2021/12/10 16:52:30;;;;;;;23.95;17.05;;;;;;;4.61;100.00;93889.97;4858462;29;20435;-74